createdAt,value
2019-01-19T00:01:46.069Z,100.00
2019-01-19T00:04:35.543Z,100.00
2019-01-19T00:07:43.393Z,100.00
2019-01-19T00:10:34.879Z,100.00
2019-01-19T00:13:43.434Z,100.00
2019-01-19T00:20:15.113Z,100.00
2019-01-19T00:23:02.496Z,100.00
2019-01-19T00:26:27.053Z,100.00
2019-01-19T00:29:32.685Z,100.00
2019-01-19T00:32:23.994Z,100.00
2019-01-19T00:35:42.969Z,100.00
2019-01-19T00:38:33.491Z,100.00
2019-01-19T00:41:49.366Z,100.00
2019-01-19T00:44:45.711Z,100.00
2019-01-19T00:47:26.619Z,100.00
2019-01-19T00:50:01.901Z,100.00
2019-01-19T00:52:53.006Z,100.00
2019-01-19T00:55:32.036Z,100.00
2019-01-19T00:58:07.458Z,100.00
2019-01-19T01:00:48.133Z,100.00
2019-01-19T01:03:35.907Z,100.00
2019-01-19T01:06:34.992Z,100.00
2019-01-19T01:09:28.352Z,100.00
2019-01-19T01:12:15.249Z,100.00
2019-01-19T01:15:10.704Z,100.00
2019-01-19T01:17:43.527Z,100.00
2019-01-19T01:20:36.806Z,100.00
2019-01-19T01:23:40.191Z,100.00
2019-01-19T01:26:58.553Z,100.00
2019-01-19T01:30:23.735Z,100.00
2019-01-19T01:33:11.975Z,100.00
2019-01-19T01:35:57.135Z,100.00
2019-01-19T01:38:35.760Z,100.00
2019-01-19T01:41:16.184Z,100.00
2019-01-19T01:44:21.418Z,100.00
2019-01-19T01:47:32.076Z,100.00
2019-01-19T01:50:30.602Z,100.00
2019-01-19T01:53:33.325Z,100.00
2019-01-19T01:56:19.287Z,100.00
2019-01-19T01:59:24.544Z,100.00
2019-01-19T02:01:58.827Z,100.00
2019-01-19T02:04:49.515Z,100.00
2019-01-19T02:07:30.180Z,100.00
2019-01-19T02:10:06.243Z,100.00
2019-01-19T02:12:53.887Z,100.00
2019-01-19T02:15:29.530Z,100.00
2019-01-19T02:18:07.757Z,100.00
2019-01-19T02:21:10.000Z,100.00
2019-01-19T02:23:49.302Z,100.00
2019-01-19T02:26:56.374Z,100.00
2019-01-19T02:29:47.464Z,100.00
2019-01-19T02:32:34.965Z,100.00
2019-01-19T02:35:20.529Z,100.00
2019-01-19T02:37:56.329Z,100.00
2019-01-19T02:40:33.169Z,100.00
2019-01-19T02:43:17.887Z,100.00
2019-01-19T02:46:11.372Z,100.00
2019-01-19T02:48:56.901Z,100.00
2019-01-19T02:51:40.631Z,100.00
2019-01-19T02:54:25.415Z,100.00
2019-01-19T02:57:18.036Z,100.00
2019-01-19T03:00:14.634Z,100.00
2019-01-19T03:02:50.689Z,100.00
2019-01-19T03:05:26.836Z,100.00
2019-01-19T03:07:59.929Z,100.00
2019-01-19T03:10:50.281Z,100.00
2019-01-19T03:13:42.468Z,100.00
2019-01-19T03:16:52.112Z,100.00
2019-01-19T03:19:35.105Z,100.00
2019-01-19T03:22:34.387Z,100.00
2019-01-19T03:25:28.551Z,100.00
2019-01-19T03:28:30.143Z,100.00
2019-01-19T03:31:31.521Z,100.00
2019-01-19T03:34:21.388Z,100.00
2019-01-19T03:37:04.346Z,100.00
2019-01-19T03:40:13.095Z,100.00
2019-01-19T03:43:04.690Z,100.00
2019-01-19T03:46:10.852Z,100.00
2019-01-19T03:49:16.366Z,100.00
2019-01-19T03:52:12.507Z,100.00
2019-01-19T03:55:03.767Z,100.00
2019-01-19T03:57:59.555Z,100.00
2019-01-19T04:01:12.791Z,100.00
2019-01-19T04:04:19.678Z,100.00
2019-01-19T04:07:19.874Z,100.00
2019-01-19T04:10:01.332Z,100.00
2019-01-19T04:12:37.351Z,100.00
2019-01-19T04:15:24.972Z,100.00
2019-01-19T04:17:57.659Z,100.00
2019-01-19T04:20:48.659Z,100.00
2019-01-19T04:23:29.759Z,100.00
2019-01-19T04:26:04.583Z,100.00
2019-01-19T04:28:38.852Z,100.00
2019-01-19T04:31:08.772Z,100.00
2019-01-19T04:33:38.548Z,100.00
2019-01-19T04:36:09.582Z,100.00
2019-01-19T04:38:42.124Z,100.00
2019-01-19T04:41:19.158Z,100.00
2019-01-19T04:43:58.156Z,100.00
2019-01-19T04:46:28.388Z,100.00
2019-01-19T04:48:58.145Z,100.00
2019-01-19T04:51:27.932Z,100.00
2019-01-19T04:54:04.475Z,100.00
2019-01-19T04:56:39.700Z,100.00
2019-01-19T04:59:10.889Z,100.00
2019-01-19T05:01:45.323Z,100.00
2019-01-19T05:04:20.073Z,100.00
2019-01-19T05:06:58.719Z,100.00
2019-01-19T05:09:30.881Z,100.00
2019-01-19T05:12:13.197Z,100.00
2019-01-19T05:14:48.309Z,100.00
2019-01-19T05:17:32.846Z,100.00
2019-01-19T05:20:07.222Z,100.00
2019-01-19T05:22:38.785Z,100.00
2019-01-19T05:25:13.044Z,100.00
2019-01-19T05:27:42.813Z,100.00
2019-01-19T05:30:16.287Z,100.00
2019-01-19T05:33:04.403Z,100.00
2019-01-19T05:35:36.093Z,100.00
2019-01-19T05:38:10.259Z,100.00
2019-01-19T05:40:44.054Z,100.00
2019-01-19T05:43:16.236Z,100.00
2019-01-19T05:45:46.124Z,100.00
2019-01-19T05:48:23.367Z,100.00
2019-01-19T05:51:03.973Z,100.00
2019-01-19T05:53:40.963Z,100.00
2019-01-19T05:56:10.810Z,100.00
2019-01-19T05:58:58.157Z,100.00
2019-01-19T06:01:29.137Z,100.00
2019-01-19T06:04:10.591Z,100.00
2019-01-19T06:06:46.766Z,100.00
2019-01-19T06:09:19.812Z,100.00
2019-01-19T06:11:59.915Z,100.00
2019-01-19T06:14:52.234Z,100.00
2019-01-19T06:17:30.721Z,100.00
2019-01-19T06:20:06.860Z,100.00
2019-01-19T06:22:46.482Z,100.00
2019-01-19T06:25:37.265Z,100.00
2019-01-19T06:28:19.595Z,100.00
2019-01-19T06:30:50.594Z,100.00
2019-01-19T06:33:27.041Z,100.00
2019-01-19T06:36:06.707Z,100.00
2019-01-19T06:38:42.708Z,100.00
2019-01-19T06:41:26.615Z,100.00
2019-01-19T06:44:04.046Z,100.00
2019-01-19T06:47:09.610Z,100.00
2019-01-19T06:53:13.074Z,100.00
2019-01-19T06:56:09.506Z,100.00
2019-01-19T06:58:36.883Z,100.00
2019-01-19T07:03:55.277Z,100.00
2019-01-19T07:06:46.903Z,100.00
2019-01-19T07:09:22.181Z,100.00
2019-01-19T07:15:37.763Z,100.00
2019-01-19T07:18:49.963Z,100.00
2019-01-19T07:21:53.993Z,100.00
2019-01-19T07:24:50.498Z,100.00
2019-01-19T07:27:39.295Z,100.00
2019-01-19T07:30:21.881Z,100.00
2019-01-19T07:33:20.166Z,100.00
2019-01-19T07:35:53.866Z,100.00
2019-01-19T07:38:26.943Z,100.00
2019-01-19T07:41:08.325Z,100.00
2019-01-19T07:44:15.711Z,100.00
2019-01-19T07:47:01.730Z,100.00
2019-01-19T07:49:38.135Z,100.00
2019-01-19T07:52:38.338Z,100.00
2019-01-19T07:55:47.181Z,100.00
2019-01-19T07:58:38.599Z,100.00
2019-01-19T08:01:29.257Z,100.00
2019-01-19T08:04:25.696Z,100.00
2019-01-19T08:07:19.053Z,100.00
2019-01-19T08:10:06.176Z,100.00
2019-01-19T08:12:52.298Z,100.00
2019-01-19T08:15:42.846Z,100.00
2019-01-19T08:18:33.347Z,100.00
2019-01-19T08:21:26.207Z,100.00
2019-01-19T08:24:13.339Z,100.00
2019-01-19T08:27:05.953Z,100.00
2019-01-19T08:30:20.001Z,100.00
2019-01-19T08:33:22.293Z,100.00
2019-01-19T08:36:07.927Z,100.00
2019-01-19T08:39:11.881Z,100.00
2019-01-19T08:42:03.002Z,100.00
2019-01-19T08:45:08.361Z,100.00
2019-01-19T08:47:52.122Z,97.53
2019-01-19T08:50:46.763Z,90.28
2019-01-19T08:54:04.650Z,88.12
2019-01-19T08:56:42.228Z,89.22
2019-01-19T08:59:22.403Z,86.17
2019-01-19T09:02:14.900Z,82.67
2019-01-19T09:05:18.683Z,82.03
2019-01-19T09:08:54.745Z,79.10
2019-01-19T09:14:45.086Z,80.92
2019-01-19T09:17:55.557Z,78.72
2019-01-19T09:20:48.434Z,79.63
2019-01-19T09:23:59.609Z,81.31
2019-01-19T09:27:05.926Z,84.41
2019-01-19T09:30:19.519Z,86.38
2019-01-19T09:33:18.871Z,89.87
2019-01-19T09:36:20.273Z,91.46
2019-01-19T09:39:15.759Z,93.45
2019-01-19T09:41:58.061Z,94.86
2019-01-19T09:44:33.486Z,96.63
2019-01-19T09:47:29.264Z,94.57
2019-01-19T09:50:46.431Z,96.41
2019-01-19T09:53:42.918Z,97.32
2019-01-19T09:56:51.161Z,94.21
2019-01-19T09:59:35.012Z,93.09
2019-01-19T10:02:25.131Z,88.12
2019-01-19T10:05:16.112Z,80.77
2019-01-19T10:07:58.989Z,78.48
2019-01-19T10:10:39.193Z,75.89
2019-01-19T10:17:03.556Z,76.92
2019-01-19T10:19:41.312Z,80.35
2019-01-19T10:22:28.583Z,80.85
2019-01-19T10:25:09.437Z,80.43
2019-01-19T10:27:53.986Z,79.21
2019-01-19T10:30:32.719Z,78.76
2019-01-19T10:33:15.167Z,77.94
2019-01-19T10:36:17.587Z,76.08
2019-01-19T10:38:52.982Z,78.21
2019-01-19T10:41:28.255Z,77.67
2019-01-19T10:44:13.032Z,74.14
2019-01-19T10:47:05.470Z,68.63
2019-01-19T10:50:15.125Z,71.35
2019-01-19T10:53:29.493Z,71.40
2019-01-19T10:59:22.399Z,79.13
2019-01-19T11:02:29.664Z,78.90
2019-01-19T11:05:16.689Z,81.78
2019-01-19T11:07:53.645Z,80.95
2019-01-19T11:10:49.818Z,78.15
2019-01-19T11:16:31.364Z,71.91
2019-01-19T11:19:22.514Z,73.85
2019-01-19T11:22:23.337Z,72.96
2019-01-19T11:25:34.202Z,74.05
2019-01-19T11:28:11.132Z,74.35
2019-01-19T11:30:48.872Z,72.15
2019-01-19T11:33:28.903Z,71.33
2019-01-19T11:36:09.533Z,72.36
2019-01-19T11:38:56.931Z,74.10
2019-01-19T11:41:34.232Z,77.48
2019-01-19T11:44:11.979Z,83.08
2019-01-19T11:47:01.297Z,83.62
2019-01-19T11:49:49.122Z,84.29
2019-01-19T11:52:30.764Z,78.09
2019-01-19T11:55:28.670Z,77.86
2019-01-19T11:58:04.594Z,79.06
2019-01-19T12:00:52.807Z,80.86
2019-01-19T12:06:57.641Z,81.08
2019-01-19T12:09:46.229Z,77.53
2019-01-19T12:12:44.823Z,78.62
2019-01-19T12:15:34.833Z,79.86
2019-01-19T12:18:18.235Z,77.89
2019-01-19T12:20:53.721Z,77.31
2019-01-19T12:23:27.216Z,73.68
2019-01-19T12:26:16.222Z,72.90
2019-01-19T12:29:12.568Z,71.51
2019-01-19T12:31:53.640Z,70.37
2019-01-19T12:34:34.907Z,69.07
2019-01-19T12:37:32.586Z,70.37
2019-01-19T12:40:30.710Z,71.82
2019-01-19T12:43:37.137Z,71.09
2019-01-19T12:46:27.551Z,71.67
2019-01-19T12:49:07.307Z,72.11
2019-01-19T12:51:52.186Z,72.81
2019-01-19T12:54:45.912Z,71.51
2019-01-19T12:57:33.424Z,70.49
2019-01-19T13:00:22.591Z,71.73
2019-01-19T13:03:25.967Z,72.93
2019-01-19T13:09:24.494Z,69.54
2019-01-19T13:12:34.508Z,73.15
2019-01-19T13:15:33.007Z,73.62
2019-01-19T13:18:47.324Z,71.34
2019-01-19T13:22:01.448Z,70.66
2019-01-19T13:25:25.178Z,69.32
2019-01-19T13:28:43.237Z,69.52
2019-01-19T13:35:06.860Z,71.19
2019-01-19T13:38:06.991Z,69.01
2019-01-19T13:40:57.718Z,67.08
2019-01-19T13:44:07.424Z,66.08
2019-01-19T13:47:03.016Z,73.60
2019-01-19T13:50:15.830Z,72.33
2019-01-19T13:52:59.496Z,73.23
2019-01-19T13:55:36.373Z,73.82
2019-01-19T13:58:16.205Z,74.37
2019-01-19T14:01:09.304Z,76.24
2019-01-19T14:04:07.866Z,78.02
2019-01-19T14:07:28.717Z,79.33
2019-01-19T14:10:48.445Z,81.15
2019-01-19T14:14:11.761Z,78.91
2019-01-19T14:17:22.272Z,80.66
2019-01-19T14:20:27.879Z,80.68
2019-01-19T14:23:31.617Z,79.45
2019-01-19T14:26:16.005Z,81.61
2019-01-19T14:29:03.975Z,84.28
2019-01-19T14:31:50.924Z,85.54
2019-01-19T14:35:04.365Z,85.55
2019-01-19T14:42:07.209Z,87.94
2019-01-19T14:45:04.931Z,87.40
2019-01-19T14:47:55.592Z,88.02
2019-01-19T14:50:37.914Z,88.41
2019-01-19T14:53:54.274Z,89.11
2019-01-19T14:57:15.506Z,88.82
2019-01-19T15:00:29.605Z,89.78
2019-01-19T15:03:33.014Z,92.48
2019-01-19T15:06:18.623Z,92.77
2019-01-19T15:09:21.713Z,92.77
2019-01-19T15:12:30.052Z,93.09
2019-01-19T15:15:43.164Z,94.17
2019-01-19T15:18:47.722Z,94.16
2019-01-19T15:21:37.428Z,95.08
2019-01-19T15:24:26.589Z,93.73
2019-01-19T15:27:21.609Z,94.22
2019-01-19T15:30:25.099Z,96.40
2019-01-19T15:33:08.060Z,96.01
2019-01-19T15:36:11.739Z,96.04
2019-01-19T15:38:51.260Z,96.51
2019-01-19T15:41:50.073Z,97.26
2019-01-19T15:44:45.747Z,97.06
2019-01-19T15:47:42.166Z,97.61
2019-01-19T15:50:57.565Z,98.32
2019-01-19T15:54:06.682Z,99.12
2019-01-19T15:57:13.695Z,98.65
2019-01-19T16:00:19.977Z,97.57
2019-01-19T16:03:15.973Z,97.29
2019-01-19T16:06:27.673Z,97.35
2019-01-19T16:09:30.887Z,97.19
2019-01-19T16:12:14.423Z,96.64
2019-01-19T16:15:02.229Z,97.26
2019-01-19T16:17:51.085Z,97.00
2019-01-19T16:20:47.169Z,98.02
2019-01-19T16:23:35.818Z,98.79
2019-01-19T16:26:24.138Z,99.70
2019-01-19T16:29:12.564Z,99.57
2019-01-19T16:32:15.505Z,99.24
2019-01-19T16:35:09.416Z,99.27
2019-01-19T16:37:47.814Z,100.00
2019-01-19T16:40:48.793Z,100.00
2019-01-19T16:43:33.450Z,100.00
2019-01-19T16:46:32.990Z,100.00
2019-01-19T16:49:24.900Z,100.00
2019-01-19T16:52:22.610Z,100.00
2019-01-19T16:55:04.754Z,100.00
2019-01-19T16:57:52.930Z,100.00
2019-01-19T17:00:55.816Z,100.00
2019-01-19T17:03:45.525Z,100.00
2019-01-19T17:09:52.842Z,100.00
2019-01-19T17:12:45.020Z,100.00
2019-01-19T17:15:50.693Z,100.00
2019-01-19T17:19:11.371Z,100.00
2019-01-19T17:22:17.920Z,100.00
2019-01-19T17:25:18.664Z,100.00
2019-01-19T17:36:01.241Z,100.00
2019-01-19T17:39:20.728Z,100.00
2019-01-19T17:42:33.642Z,100.00
2019-01-19T17:46:08.591Z,100.00
2019-01-19T17:49:09.840Z,100.00
2019-01-19T17:52:21.983Z,100.00
2019-01-19T17:55:16.987Z,100.00
2019-01-19T17:57:59.418Z,100.00
2019-01-19T18:01:03.207Z,100.00
2019-01-19T18:03:57.916Z,100.00
2019-01-19T18:06:45.602Z,100.00
2019-01-19T18:10:03.819Z,100.00
2019-01-19T18:13:34.631Z,100.00
2019-01-19T18:20:31.766Z,100.00
2019-01-19T18:24:12.953Z,100.00
2019-01-19T18:27:02.198Z,100.00
2019-01-19T18:30:22.448Z,100.00
2019-01-19T18:33:37.403Z,100.00
2019-01-19T18:36:19.543Z,100.00
2019-01-19T18:39:10.483Z,100.00
2019-01-19T18:42:13.409Z,100.00
2019-01-19T18:45:06.814Z,100.00
2019-01-19T18:48:18.625Z,100.00
2019-01-19T18:50:54.462Z,100.00
2019-01-19T18:54:06.130Z,100.00
2019-01-19T18:57:19.248Z,100.00
2019-01-19T19:00:03.095Z,100.00
2019-01-19T19:03:25.617Z,100.00
2019-01-19T19:06:32.631Z,100.00
2019-01-19T19:09:42.205Z,100.00
2019-01-19T19:12:22.794Z,100.00
2019-01-19T19:15:33.835Z,100.00
2019-01-19T19:18:22.967Z,100.00
2019-01-19T19:21:15.873Z,100.00
2019-01-19T19:24:03.425Z,100.00
2019-01-19T19:26:47.759Z,100.00
2019-01-19T19:29:29.434Z,100.00
2019-01-19T19:39:25.310Z,100.00
2019-01-19T19:42:18.150Z,100.00
2019-01-19T19:45:52.867Z,100.00
2019-01-19T19:48:56.074Z,100.00
2019-01-19T19:52:07.340Z,100.00
2019-01-19T19:54:55.065Z,100.00
2019-01-19T19:57:32.373Z,100.00
2019-01-19T20:00:08.208Z,100.00
2019-01-19T20:02:45.666Z,100.00
2019-01-19T20:05:31.440Z,100.00
2019-01-19T20:08:15.527Z,100.00
2019-01-19T20:10:55.092Z,100.00
2019-01-19T20:13:30.685Z,100.00
2019-01-19T20:16:39.639Z,100.00
2019-01-19T20:19:25.781Z,100.00
2019-01-19T20:22:50.107Z,100.00
2019-01-19T20:28:59.733Z,100.00
2019-01-19T20:32:12.575Z,100.00
2019-01-19T20:34:58.126Z,100.00
2019-01-19T20:37:38.385Z,100.00
2019-01-19T20:40:35.703Z,100.00
2019-01-19T20:43:10.660Z,100.00
2019-01-19T20:45:53.901Z,100.00
2019-01-19T20:48:31.394Z,100.00
2019-01-19T20:51:32.257Z,100.00
2019-01-19T20:54:08.758Z,100.00
2019-01-19T20:56:45.101Z,100.00
2019-01-19T21:02:18.155Z,100.00
2019-01-19T21:04:56.441Z,100.00
2019-01-19T21:07:38.549Z,100.00
2019-01-19T21:10:49.891Z,100.00
2019-01-19T21:13:22.070Z,100.00
2019-01-19T21:15:55.974Z,100.00
2019-01-19T21:18:28.760Z,100.00
2019-01-19T21:24:50.230Z,100.00
2019-01-19T21:28:10.660Z,100.00
2019-01-19T21:31:04.553Z,100.00
2019-01-19T21:33:53.393Z,100.00
2019-01-19T21:36:31.988Z,100.00
2019-01-19T21:42:09.272Z,100.00
2019-01-19T21:44:52.501Z,100.00
2019-01-19T21:47:53.068Z,100.00
2019-01-19T21:53:44.399Z,100.00
2019-01-19T21:56:42.013Z,100.00
2019-01-19T22:00:05.084Z,100.00
2019-01-19T22:03:25.775Z,100.00
2019-01-19T22:06:24.043Z,100.00
2019-01-19T22:09:19.162Z,100.00
2019-01-19T22:12:09.729Z,100.00
2019-01-19T22:14:48.665Z,100.00
2019-01-19T22:17:44.242Z,100.00
2019-01-19T22:20:44.667Z,100.00
2019-01-19T22:23:55.594Z,100.00
2019-01-19T22:26:54.440Z,100.00
2019-01-19T22:30:02.579Z,100.00
2019-01-19T22:32:43.248Z,100.00
2019-01-19T22:35:17.608Z,100.00
2019-01-19T22:38:27.051Z,100.00
2019-01-19T22:41:37.661Z,100.00
2019-01-19T22:44:14.750Z,100.00
2019-01-19T22:50:27.323Z,100.00
2019-01-19T22:53:01.112Z,100.00
2019-01-19T22:55:40.899Z,100.00
2019-01-19T22:58:24.915Z,100.00
2019-01-19T23:01:15.063Z,100.00
2019-01-19T23:03:48.301Z,100.00
2019-01-19T23:06:42.828Z,100.00
2019-01-19T23:09:23.848Z,100.00
2019-01-19T23:12:36.645Z,100.00
2019-01-19T23:15:33.794Z,100.00
2019-01-19T23:18:27.300Z,100.00
2019-01-19T23:21:31.447Z,100.00
2019-01-19T23:24:43.127Z,100.00
2019-01-19T23:27:54.096Z,100.00
2019-01-19T23:31:00.599Z,100.00
2019-01-19T23:33:37.221Z,100.00
2019-01-19T23:36:15.229Z,100.00
2019-01-19T23:38:59.246Z,100.00
2019-01-19T23:41:32.470Z,100.00
2019-01-19T23:44:13.852Z,100.00
2019-01-19T23:47:00.793Z,100.00
2019-01-19T23:50:05.381Z,100.00
2019-01-19T23:52:44.720Z,100.00
2019-01-19T23:56:00.179Z,100.00
2019-01-19T23:59:18.287Z,100.00
